createdAt,value
2018-04-14T00:01:20.915Z,57.23
2018-04-14T00:03:49.280Z,57.00
2018-04-14T00:06:18.444Z,57.93
2018-04-14T00:08:47.365Z,58.30
2018-04-14T00:11:16.510Z,64.17
2018-04-14T00:13:45.227Z,60.03
2018-04-14T00:16:14.764Z,63.90
2018-04-14T00:18:44.275Z,60.93
2018-04-14T00:21:13.475Z,62.93
2018-04-14T00:23:41.895Z,66.63
2018-04-14T00:26:10.301Z,69.53
2018-04-14T00:28:39.645Z,70.53
2018-04-14T00:31:08.090Z,67.10
2018-04-14T00:33:36.480Z,66.73
2018-04-14T00:36:04.864Z,64.57
2018-04-14T00:38:33.247Z,64.17
2018-04-14T00:41:02.576Z,63.80
2018-04-14T00:43:30.994Z,67.57
2018-04-14T00:45:59.958Z,63.70
2018-04-14T00:48:28.692Z,66.37
2018-04-14T00:50:57.026Z,64.60
2018-04-14T00:53:37.066Z,62.90
2018-04-14T00:56:05.421Z,65.87
2018-04-14T00:58:33.831Z,63.73
2018-04-14T01:01:03.718Z,64.13
2018-04-14T01:03:32.366Z,66.03
2018-04-14T01:06:00.747Z,64.47
2018-04-14T01:08:29.128Z,62.00
2018-04-14T01:10:58.159Z,66.60
2018-04-14T01:13:27.790Z,67.63
2018-04-14T01:15:56.447Z,63.43
2018-04-14T01:18:25.009Z,64.00
2018-04-14T01:20:53.365Z,63.77
2018-04-14T01:23:23.250Z,64.33
2018-04-14T01:25:51.850Z,60.60
2018-04-14T01:28:21.074Z,60.07
2018-04-14T01:30:49.612Z,61.43
2018-04-14T01:33:18.053Z,60.97
2018-04-14T01:35:46.996Z,57.40
2018-04-14T01:38:15.379Z,60.93
2018-04-14T01:40:43.775Z,61.03
2018-04-14T01:43:12.140Z,59.63
2018-04-14T01:45:40.493Z,58.23
2018-04-14T01:48:08.903Z,57.07
2018-04-14T01:50:38.512Z,55.97
2018-04-14T01:53:06.928Z,59.17
2018-04-14T01:55:35.293Z,61.67
2018-04-14T01:58:04.345Z,63.10
2018-04-14T02:00:32.726Z,64.17
2018-04-14T02:03:01.095Z,60.10
2018-04-14T02:05:29.491Z,60.53
2018-04-14T02:07:57.874Z,55.70
2018-04-14T02:10:26.205Z,55.97
2018-04-14T02:12:54.570Z,53.90
2018-04-14T02:15:24.169Z,54.63
2018-04-14T02:17:52.582Z,52.87
2018-04-14T02:20:21.194Z,52.87
2018-04-14T02:22:49.640Z,54.70
2018-04-14T02:25:17.979Z,54.73
2018-04-14T02:27:46.523Z,56.80
2018-04-14T02:30:14.853Z,55.47
2018-04-14T02:32:43.200Z,53.03
2018-04-14T02:35:11.594Z,52.77
2018-04-14T02:37:39.948Z,53.73
2018-04-14T02:40:08.559Z,51.30
2018-04-14T02:42:37.812Z,49.30
2018-04-14T02:45:06.189Z,49.87
2018-04-14T02:47:34.579Z,50.70
2018-04-14T02:50:02.933Z,51.90
2018-04-14T02:52:33.418Z,52.67
2018-04-14T02:55:03.209Z,51.90
2018-04-14T02:57:31.892Z,51.80
2018-04-14T03:00:00.274Z,51.20
2018-04-14T03:02:28.626Z,51.07
2018-04-14T03:04:56.997Z,50.97
2018-04-14T03:07:25.976Z,50.53
2018-04-14T03:09:55.284Z,49.87
2018-04-14T03:12:23.614Z,52.07
2018-04-14T03:14:52.504Z,51.53
2018-04-14T03:17:21.204Z,51.30
2018-04-14T03:19:50.299Z,51.80
2018-04-14T03:22:19.008Z,52.03
2018-04-14T03:24:48.188Z,51.40
2018-04-14T03:27:16.536Z,50.67
2018-04-14T03:29:44.933Z,55.23
2018-04-14T03:32:13.432Z,53.37
2018-04-14T03:34:42.653Z,53.00
2018-04-14T03:37:11.096Z,51.73
2018-04-14T03:39:40.087Z,50.23
2018-04-14T03:42:09.005Z,52.57
2018-04-14T03:44:38.837Z,51.97
2018-04-14T03:47:07.308Z,51.07
2018-04-14T03:49:35.708Z,50.67
2018-04-14T03:52:04.041Z,50.47
2018-04-14T03:54:32.423Z,50.67
2018-04-14T03:57:01.862Z,49.33
2018-04-14T03:59:31.198Z,51.03
2018-04-14T04:01:59.545Z,52.23
2018-04-14T04:04:29.462Z,53.07
2018-04-14T04:06:58.578Z,51.57
2018-04-14T04:09:26.944Z,49.80
2018-04-14T04:11:55.324Z,52.53
2018-04-14T04:14:23.716Z,53.07
2018-04-14T04:16:52.936Z,51.87
2018-04-14T04:19:33.687Z,51.97
2018-04-14T04:22:14.261Z,56.30
2018-04-14T04:24:54.299Z,52.07
2018-04-14T04:27:22.345Z,55.43
2018-04-14T04:29:51.081Z,56.30
2018-04-14T04:32:19.407Z,57.97
2018-04-14T04:34:47.492Z,55.33
2018-04-14T04:37:15.638Z,54.23
2018-04-14T04:39:45.296Z,54.80
2018-04-14T04:42:14.288Z,55.93
2018-04-14T04:44:44.199Z,54.83
2018-04-14T04:47:13.169Z,55.23
2018-04-14T04:49:41.986Z,55.33
2018-04-14T04:52:10.216Z,54.87
2018-04-14T04:54:38.527Z,58.10
2018-04-14T04:57:07.513Z,56.03
2018-04-14T04:59:35.592Z,53.17
2018-04-14T05:02:05.228Z,54.83
2018-04-14T05:04:34.243Z,52.57
2018-04-14T05:07:03.191Z,55.43
2018-04-14T05:09:31.284Z,53.47
2018-04-14T05:11:59.353Z,52.80
2018-04-14T05:14:27.841Z,50.37
2018-04-14T05:16:56.313Z,50.00
2018-04-14T05:19:26.096Z,52.67
2018-04-14T05:21:54.877Z,52.13
2018-04-14T05:24:22.987Z,49.03
2018-04-14T05:26:51.273Z,50.27
2018-04-14T05:29:19.341Z,50.67
2018-04-14T05:31:48.206Z,51.83
2018-04-14T05:34:16.601Z,51.03
2018-04-14T05:36:44.675Z,50.10
2018-04-14T05:39:12.875Z,52.73
2018-04-14T05:41:40.930Z,52.07
2018-04-14T05:44:09.520Z,52.63
2018-04-14T05:46:38.792Z,52.07
2018-04-14T05:49:07.147Z,53.00
2018-04-14T05:51:35.775Z,56.37
2018-04-14T05:54:04.577Z,56.23
2018-04-14T05:56:32.642Z,53.33
2018-04-14T05:59:01.866Z,55.03
2018-04-14T06:01:29.961Z,53.97
2018-04-14T06:03:58.869Z,53.67
2018-04-14T06:06:26.989Z,53.73
2018-04-14T06:08:55.085Z,56.90
2018-04-14T06:11:23.198Z,49.93
2018-04-14T06:13:52.119Z,50.20
2018-04-14T06:16:20.397Z,50.17
2018-04-14T06:18:48.468Z,53.80
2018-04-14T06:21:16.678Z,50.83
2018-04-14T06:23:44.752Z,53.70
2018-04-14T06:26:13.145Z,56.10
2018-04-14T06:28:41.458Z,52.93
2018-04-14T06:31:10.724Z,51.33
2018-04-14T06:33:38.811Z,50.87
2018-04-14T06:36:06.884Z,50.63
2018-04-14T06:38:34.955Z,51.77
2018-04-14T06:41:03.603Z,52.33
2018-04-14T06:43:32.760Z,49.90
2018-04-14T06:46:01.474Z,52.00
2018-04-14T06:48:29.543Z,51.87
2018-04-14T06:50:57.619Z,47.83
2018-04-14T06:53:25.805Z,49.53
2018-04-14T06:55:53.895Z,47.43
2018-04-14T06:58:23.452Z,50.10
2018-04-14T07:00:51.577Z,51.50
2018-04-14T07:03:19.638Z,48.10
2018-04-14T07:05:47.804Z,48.13
2018-04-14T07:08:16.284Z,43.60
2018-04-14T07:10:44.422Z,42.20
2018-04-14T07:13:12.961Z,43.93
2018-04-14T07:15:42.278Z,44.97
2018-04-14T07:18:10.397Z,47.40
2018-04-14T07:20:39.449Z,49.20
2018-04-14T07:23:08.281Z,47.63
2018-04-14T07:25:37.167Z,49.23
2018-04-14T07:28:05.230Z,48.77
2018-04-14T07:30:34.111Z,50.70
2018-04-14T07:33:02.315Z,48.93
2018-04-14T07:35:30.551Z,46.43
2018-04-14T07:37:58.619Z,49.23
2018-04-14T07:40:27.244Z,46.40
2018-04-14T07:42:55.367Z,46.13
2018-04-14T07:45:23.540Z,48.33
2018-04-14T07:47:52.462Z,47.13
2018-04-14T07:50:20.600Z,44.30
2018-04-14T07:52:48.709Z,45.17
2018-04-14T07:55:16.801Z,44.57
2018-04-14T07:57:45.628Z,42.00
2018-04-14T08:00:13.793Z,43.90
2018-04-14T08:02:41.888Z,44.63
2018-04-14T08:05:10.046Z,42.90
2018-04-14T08:07:38.467Z,46.07
2018-04-14T08:10:06.552Z,45.13
2018-04-14T08:12:34.601Z,43.50
2018-04-14T08:15:02.732Z,46.30
2018-04-14T08:17:30.798Z,44.40
2018-04-14T08:19:58.926Z,40.57
2018-04-14T08:22:27.250Z,41.73
2018-04-14T08:24:55.321Z,44.77
2018-04-14T08:27:23.398Z,44.67
2018-04-14T08:29:52.085Z,45.10
2018-04-14T08:32:20.140Z,44.43
2018-04-14T08:34:48.220Z,44.07
2018-04-14T08:37:16.313Z,41.77
2018-04-14T08:39:44.415Z,41.87
2018-04-14T08:42:14.247Z,42.50
2018-04-14T08:44:42.569Z,42.97
2018-04-14T08:47:10.871Z,41.70
2018-04-14T08:49:39.718Z,43.10
2018-04-14T08:52:07.956Z,41.70
2018-04-14T08:54:36.243Z,41.07
2018-04-14T08:57:05.285Z,40.83
2018-04-14T08:59:34.184Z,39.17
2018-04-14T09:02:02.298Z,37.47
2018-04-14T09:04:30.703Z,33.90
2018-04-14T09:06:59.179Z,32.93
2018-04-14T09:09:27.254Z,34.43
2018-04-14T09:11:55.453Z,31.73
2018-04-14T09:14:24.812Z,32.20
2018-04-14T09:16:53.880Z,29.23
2018-04-14T09:19:23.287Z,27.67
2018-04-14T09:21:51.895Z,27.40
2018-04-14T09:24:20.255Z,28.00
2018-04-14T09:26:48.594Z,26.63
2018-04-14T09:29:17.422Z,27.47
2018-04-14T09:31:45.796Z,26.07
2018-04-14T09:34:15.170Z,26.47
2018-04-14T09:36:44.099Z,24.87
2018-04-14T09:39:13.285Z,23.47
2018-04-14T09:41:41.803Z,20.30
2018-04-14T09:44:11.271Z,18.87
2018-04-14T09:46:40.907Z,16.40
2018-04-14T09:49:09.254Z,15.80
2018-04-14T09:51:39.072Z,15.53
2018-04-14T09:54:07.656Z,15.30
2018-04-14T09:56:36.009Z,16.83
2018-04-14T09:59:05.260Z,16.23
2018-04-14T10:01:34.187Z,16.83
2018-04-14T10:04:03.450Z,15.83
2018-04-14T10:06:32.129Z,16.37
2018-04-14T10:09:01.184Z,17.47
2018-04-14T10:11:31.359Z,17.33
2018-04-14T10:14:00.067Z,17.60
2018-04-14T10:16:28.469Z,16.60
2018-04-14T10:18:56.889Z,15.70
2018-04-14T10:21:25.262Z,16.07
2018-04-14T10:23:53.668Z,16.33
2018-04-14T10:26:22.036Z,14.77
2018-04-14T10:28:50.383Z,15.00
2018-04-14T10:31:19.469Z,14.60
2018-04-14T10:33:48.537Z,14.63
2018-04-14T10:36:16.950Z,14.67
2018-04-14T10:38:46.157Z,14.60
2018-04-14T10:41:14.526Z,14.37
2018-04-14T10:43:44.026Z,14.03
2018-04-14T10:46:12.442Z,13.87
2018-04-14T10:48:40.806Z,11.53
2018-04-14T10:51:09.660Z,11.53
2018-04-14T10:53:38.734Z,11.63
2018-04-14T10:56:08.587Z,11.87
2018-04-14T10:58:37.562Z,11.57
2018-04-14T11:01:07.125Z,13.80
2018-04-14T11:03:35.723Z,10.27
2018-04-14T11:06:04.174Z,9.67
2018-04-14T11:08:33.962Z,8.93
2018-04-14T11:11:03.167Z,9.57
2018-04-14T11:13:31.507Z,9.20
2018-04-14T11:16:00.516Z,8.37
2018-04-14T11:18:30.041Z,7.97
2018-04-14T11:20:59.129Z,8.17
2018-04-14T11:23:27.487Z,6.60
2018-04-14T11:25:56.797Z,8.17
2018-04-14T11:28:25.768Z,8.00
2018-04-14T11:30:54.119Z,6.73
2018-04-14T11:33:22.428Z,5.80
2018-04-14T11:35:50.779Z,6.13
2018-04-14T11:38:19.157Z,5.73
2018-04-14T11:40:47.545Z,7.70
2018-04-14T11:43:17.299Z,5.13
2018-04-14T11:45:45.692Z,7.00
2018-04-14T11:48:14.079Z,7.57
2018-04-14T11:50:43.467Z,6.80
2018-04-14T11:53:11.809Z,6.20
2018-04-14T11:55:40.288Z,5.70
2018-04-14T11:58:08.609Z,6.10
2018-04-14T12:00:36.998Z,6.30
2018-04-14T12:03:05.333Z,6.23
2018-04-14T12:05:33.821Z,6.87
2018-04-14T12:08:02.156Z,5.83
2018-04-14T12:10:34.405Z,6.33
2018-04-14T12:13:02.775Z,5.70
2018-04-14T12:15:31.145Z,5.50
2018-04-14T12:17:59.708Z,5.10
2018-04-14T12:20:28.071Z,4.07
2018-04-14T12:22:56.399Z,4.30
2018-04-14T12:25:25.026Z,4.10
2018-04-14T12:27:54.211Z,4.07
2018-04-14T12:30:22.569Z,4.43
2018-04-14T12:32:50.934Z,4.97
2018-04-14T12:35:19.302Z,4.90
2018-04-14T12:37:48.807Z,4.50
2018-04-14T12:40:17.177Z,3.90
2018-04-14T12:42:45.946Z,3.60
2018-04-14T12:45:14.362Z,4.07
2018-04-14T12:47:43.565Z,3.03
2018-04-14T12:50:13.862Z,3.43
2018-04-14T12:52:42.190Z,3.40
2018-04-14T12:55:10.576Z,3.67
2018-04-14T12:57:39.621Z,2.90
2018-04-14T13:00:08.308Z,3.63
2018-04-14T13:02:36.658Z,3.63
2018-04-14T13:05:05.258Z,3.70
2018-04-14T13:07:34.445Z,3.00
2018-04-14T13:10:03.758Z,3.37
2018-04-14T13:12:33.015Z,2.80
2018-04-14T13:15:02.756Z,2.90
2018-04-14T13:17:32.193Z,2.67
2018-04-14T13:20:01.240Z,2.70
2018-04-14T13:22:30.353Z,2.73
2018-04-14T13:24:59.594Z,2.40
2018-04-14T13:27:28.838Z,1.90
2018-04-14T13:29:58.145Z,2.00
2018-04-14T13:32:27.215Z,2.10
2018-04-14T13:34:55.589Z,1.80
2018-04-14T13:37:24.703Z,1.70
2018-04-14T13:39:54.014Z,2.27
2018-04-14T13:42:22.974Z,2.47
2018-04-14T13:44:51.341Z,1.60
2018-04-14T13:47:20.637Z,1.77
2018-04-14T13:49:48.969Z,1.30
2018-04-14T13:52:17.317Z,1.60
2018-04-14T13:54:45.973Z,1.60
2018-04-14T13:57:15.233Z,1.20
2018-04-14T13:59:43.602Z,1.20
2018-04-14T14:02:13.255Z,1.30
2018-04-14T14:04:41.581Z,1.10
2018-04-14T14:07:10.777Z,1.43
2018-04-14T14:09:39.127Z,1.00
2018-04-14T14:12:08.493Z,1.00
2018-04-14T14:14:37.186Z,0.93
2018-04-14T14:17:05.541Z,1.00
2018-04-14T14:19:34.673Z,0.90
2018-04-14T14:22:03.016Z,1.10
2018-04-14T14:24:31.388Z,1.30
2018-04-14T14:26:59.719Z,1.10
2018-04-14T14:29:28.795Z,1.10
2018-04-14T14:31:58.051Z,0.90
2018-04-14T14:34:27.220Z,1.67
2018-04-14T14:36:55.562Z,2.47
2018-04-14T14:39:24.614Z,1.40
2018-04-14T14:41:52.992Z,1.50
2018-04-14T14:44:24.160Z,1.40
2018-04-14T14:46:53.790Z,1.37
2018-04-14T14:49:22.152Z,1.10
2018-04-14T14:51:50.500Z,1.20
2018-04-14T14:54:18.852Z,1.00
2018-04-14T14:56:48.894Z,0.90
2018-04-14T14:59:17.791Z,0.87
2018-04-14T15:01:47.342Z,1.00
2018-04-14T15:04:15.734Z,0.90
2018-04-14T15:06:44.119Z,0.97
2018-04-14T15:09:12.465Z,1.00
2018-04-14T15:11:41.017Z,0.90
2018-04-14T15:14:09.376Z,1.00
2018-04-14T15:16:37.731Z,1.10
2018-04-14T15:19:08.262Z,1.13
2018-04-14T15:21:36.593Z,0.93
2018-04-14T15:24:05.756Z,1.23
2018-04-14T15:26:34.086Z,1.10
2018-04-14T15:29:02.549Z,1.00
2018-04-14T15:31:30.924Z,1.20
2018-04-14T15:33:59.494Z,1.47
2018-04-14T15:36:28.565Z,1.13
2018-04-14T15:38:57.306Z,1.40
2018-04-14T15:41:25.663Z,1.00
2018-04-14T15:43:54.029Z,1.10
2018-04-14T15:46:23.900Z,1.20
2018-04-14T15:48:52.224Z,1.17
2018-04-14T15:51:20.628Z,1.10
2018-04-14T15:53:49.681Z,1.60
2018-04-14T15:56:18.126Z,1.90
2018-04-14T15:58:46.455Z,1.47
2018-04-14T16:01:15.592Z,1.30
2018-04-14T16:03:45.418Z,1.30
2018-04-14T16:06:14.641Z,1.10
2018-04-14T16:08:43.907Z,1.50
2018-04-14T16:11:12.937Z,1.20
2018-04-14T16:13:41.249Z,1.40
2018-04-14T16:16:09.929Z,1.40
2018-04-14T16:18:38.919Z,1.20
2018-04-14T16:21:07.262Z,1.10
2018-04-14T16:23:35.637Z,2.17
2018-04-14T16:26:04.015Z,1.40
2018-04-14T16:28:32.702Z,1.30
2018-04-14T16:31:01.744Z,1.30
2018-04-14T16:33:31.601Z,1.40
2018-04-14T16:36:00.811Z,1.77
2018-04-14T16:38:29.907Z,1.97
2018-04-14T16:40:59.496Z,2.30
2018-04-14T16:43:28.044Z,2.90
2018-04-14T16:45:57.620Z,2.60
2018-04-14T16:48:26.918Z,1.87
2018-04-14T16:50:56.247Z,2.10
2018-04-14T16:53:25.521Z,2.00
2018-04-14T16:55:53.936Z,1.70
2018-04-14T16:58:22.861Z,2.10
2018-04-14T17:00:52.953Z,1.60
2018-04-14T17:03:21.313Z,1.40
2018-04-14T17:05:49.651Z,1.47
2018-04-14T17:08:18.933Z,2.87
2018-04-14T17:10:47.283Z,3.63
2018-04-14T17:13:15.638Z,4.00
2018-04-14T17:15:44.861Z,3.07
2018-04-14T17:18:14.021Z,2.80
2018-04-14T17:20:43.642Z,2.83
2018-04-14T17:23:12.053Z,2.60
2018-04-14T17:25:41.346Z,2.50
2018-04-14T17:28:10.225Z,2.10
2018-04-14T17:30:39.217Z,1.97
2018-04-14T17:33:08.152Z,1.57
2018-04-14T17:35:36.558Z,1.60
2018-04-14T17:38:05.793Z,1.53
2018-04-14T17:40:34.126Z,1.80
2018-04-14T17:43:03.093Z,1.70
2018-04-14T17:45:31.444Z,1.50
2018-04-14T17:48:00.202Z,1.33
2018-04-14T17:50:29.488Z,1.17
2018-04-14T17:52:57.854Z,1.40
2018-04-14T17:55:26.661Z,2.00
2018-04-14T17:57:56.248Z,2.10
2018-04-14T18:00:25.054Z,2.10
2018-04-14T18:02:53.495Z,2.20
2018-04-14T18:05:22.392Z,2.37
2018-04-14T18:07:51.645Z,4.07
2018-04-14T18:10:19.977Z,3.80
2018-04-14T18:12:50.947Z,4.13
2018-04-14T18:15:21.128Z,4.93
2018-04-14T18:17:50.937Z,2.50
2018-04-14T18:20:19.693Z,2.10
2018-04-14T18:22:48.831Z,2.30
2018-04-14T18:25:17.167Z,1.43
2018-04-14T18:27:45.803Z,3.07
2018-04-14T18:30:15.066Z,5.43
2018-04-14T18:32:43.984Z,3.30
2018-04-14T18:35:13.545Z,2.40
2018-04-14T18:37:41.895Z,2.30
2018-04-14T18:40:10.259Z,4.37
2018-04-14T18:42:39.644Z,2.00
2018-04-14T18:45:07.967Z,1.83
2018-04-14T18:47:38.272Z,1.73
2018-04-14T18:50:07.360Z,41.43
2018-04-14T18:52:37.117Z,84.90
2018-04-14T18:55:05.852Z,29.23
2018-04-14T18:57:34.261Z,7.00
2018-04-14T19:00:04.728Z,2.87
2018-04-14T19:02:33.939Z,1.97
2018-04-14T19:05:02.654Z,2.10
2018-04-14T19:07:34.498Z,1.60
2018-04-14T19:10:03.642Z,2.03
2018-04-14T19:12:33.531Z,2.73
2018-04-14T19:15:01.862Z,3.80
2018-04-14T19:17:30.834Z,6.00
2018-04-14T19:19:59.176Z,5.00
2018-04-14T19:22:27.531Z,4.17
2018-04-14T19:24:56.766Z,3.97
2018-04-14T19:27:25.153Z,3.47
2018-04-14T19:29:56.645Z,2.67
2018-04-14T19:32:25.111Z,2.80
2018-04-14T19:34:53.487Z,3.37
2018-04-14T19:37:21.914Z,3.13
2018-04-14T19:39:50.825Z,4.60
2018-04-14T19:42:20.109Z,14.30
2018-04-14T19:44:48.673Z,8.60
2018-04-14T19:47:18.126Z,7.83
2018-04-14T19:49:46.488Z,13.00
2018-04-14T19:52:16.217Z,15.97
2018-04-14T19:54:45.815Z,18.13
2018-04-14T19:57:15.483Z,21.57
2018-04-14T19:59:43.875Z,14.33
2018-04-14T20:02:12.302Z,9.10
2018-04-14T20:04:40.647Z,3.97
2018-04-14T20:07:11.780Z,4.43
2018-04-14T20:09:40.390Z,4.90
2018-04-14T20:12:09.581Z,3.77
2018-04-14T20:14:39.563Z,3.40
2018-04-14T20:17:09.586Z,3.53
2018-04-14T20:19:37.988Z,3.43
2018-04-14T20:22:06.547Z,3.07
2018-04-14T20:24:36.904Z,4.20
2018-04-14T20:27:05.651Z,4.13
2018-04-14T20:29:34.988Z,3.97
2018-04-14T20:32:03.625Z,3.50
2018-04-14T20:34:31.952Z,3.43
2018-04-14T20:37:01.050Z,3.70
2018-04-14T20:39:29.845Z,3.73
2018-04-14T20:41:59.703Z,3.47
2018-04-14T20:44:29.844Z,4.03
2018-04-14T20:46:58.235Z,3.60
2018-04-14T20:49:26.645Z,4.90
2018-04-14T20:51:55.415Z,6.47
2018-04-14T20:54:26.798Z,6.80
2018-04-14T20:56:56.037Z,6.37
2018-04-14T20:59:24.395Z,6.10
2018-04-14T21:01:52.950Z,5.20
2018-04-14T21:04:23.060Z,5.03
2018-04-14T21:06:52.269Z,4.23
2018-04-14T21:09:20.890Z,3.37
2018-04-14T21:11:50.168Z,2.97
2018-04-14T21:14:19.288Z,2.67
2018-04-14T21:16:49.801Z,2.90
2018-04-14T21:19:18.472Z,3.40
2018-04-14T21:21:46.799Z,4.30
2018-04-14T21:24:16.349Z,4.30
2018-04-14T21:26:46.855Z,4.73
2018-04-14T21:29:16.070Z,4.67
2018-04-14T21:31:45.242Z,4.53
2018-04-14T21:34:13.589Z,3.93
2018-04-14T21:36:42.222Z,4.27
2018-04-14T21:39:11.601Z,4.30
2018-04-14T21:41:40.025Z,3.83
2018-04-14T21:44:09.233Z,3.90
2018-04-14T21:46:39.334Z,4.20
2018-04-14T21:49:08.759Z,3.70
2018-04-14T21:51:38.049Z,3.50
2018-04-14T21:54:06.790Z,3.30
2018-04-14T21:56:35.973Z,3.40
2018-04-14T21:59:04.325Z,3.60
2018-04-14T22:01:33.572Z,3.83
2018-04-14T22:04:02.843Z,3.17
2018-04-14T22:06:31.461Z,3.23
2018-04-14T22:08:59.815Z,3.33
2018-04-14T22:11:28.927Z,3.00
2018-04-14T22:13:57.507Z,3.00
2018-04-14T22:16:26.750Z,2.70
2018-04-14T22:18:55.181Z,3.27
2018-04-14T22:21:23.835Z,3.70
2018-04-14T22:23:52.550Z,3.43
2018-04-14T22:26:21.834Z,3.10
2018-04-14T22:28:51.158Z,3.60
2018-04-14T22:31:21.528Z,3.43
2018-04-14T22:33:50.262Z,2.90
2018-04-14T22:36:18.588Z,2.90
2018-04-14T22:38:47.331Z,3.20
2018-04-14T22:41:16.863Z,2.70
2018-04-14T22:43:45.453Z,3.10
2018-04-14T22:46:14.718Z,3.10
2018-04-14T22:48:43.131Z,2.60
2018-04-14T22:51:12.583Z,2.90
2018-04-14T22:53:40.979Z,2.43
2018-04-14T22:56:10.043Z,2.80
2018-04-14T22:58:38.484Z,3.00
2018-04-14T23:01:07.470Z,2.50
2018-04-14T23:03:36.941Z,3.27
2018-04-14T23:06:09.433Z,3.20
2018-04-14T23:08:39.184Z,3.70
2018-04-14T23:11:07.536Z,3.90
2018-04-14T23:13:35.912Z,4.17
2018-04-14T23:16:05.303Z,4.13
2018-04-14T23:18:34.561Z,3.67
2018-04-14T23:21:02.937Z,4.10
2018-04-14T23:23:31.776Z,4.30
2018-04-14T23:26:01.697Z,3.90
2018-04-14T23:28:30.985Z,3.40
2018-04-14T23:30:59.425Z,3.67
2018-04-14T23:33:28.759Z,2.93
2018-04-14T23:35:57.686Z,3.27
2018-04-14T23:38:26.850Z,2.93
2018-04-14T23:40:56.721Z,2.80
2018-04-14T23:43:25.042Z,2.50
2018-04-14T23:45:53.453Z,2.37
2018-04-14T23:48:21.788Z,2.57
2018-04-14T23:50:50.377Z,2.27
2018-04-14T23:53:19.794Z,1.97
2018-04-14T23:55:49.973Z,2.50
2018-04-14T23:58:19.108Z,2.50
